sensor_id;sensor_type;location;lat;lon;timestamp;temperature;humidity
18456;DHT22;9357;49.900;8.208;2022-07-04T00:01:28;20.80;99.90
18456;DHT22;9357;49.900;8.208;2022-07-04T00:03:01;20.80;99.90
18456;DHT22;9357;49.900;8.208;2022-07-04T00:04:33;20.70;99.90
18456;DHT22;9357;49.900;8.208;2022-07-04T00:06:08;20.70;99.90
18456;DHT22;9357;49.900;8.208;2022-07-04T00:07:41;20.60;99.90
18456;DHT22;9357;49.900;8.208;2022-07-04T00:09:14;20.60;99.90
18456;DHT22;9357;49.900;8.208;2022-07-04T00:10:47;20.50;99.90
18456;DHT22;9357;49.900;8.208;2022-07-04T00:12:20;20.50;99.90
18456;DHT22;9357;49.900;8.208;2022-07-04T00:13:52;20.50;99.90
18456;DHT22;9357;49.900;8.208;2022-07-04T00:15:25;20.40;99.90
18456;DHT22;9357;49.900;8.208;2022-07-04T00:16:57;20.40;99.90
18456;DHT22;9357;49.900;8.208;2022-07-04T00:18:30;20.30;99.90
18456;DHT22;9357;49.900;8.208;2022-07-04T00:20:03;20.30;99.90
18456;DHT22;9357;49.900;8.208;2022-07-04T00:21:38;20.30;99.90
18456;DHT22;9357;49.900;8.208;2022-07-04T00:23:11;20.30;99.90
18456;DHT22;9357;49.900;8.208;2022-07-04T00:24:42;20.30;99.90
18456;DHT22;9357;49.900;8.208;2022-07-04T00:26:16;20.20;99.90
18456;DHT22;9357;49.900;8.208;2022-07-04T00:27:49;20.20;99.90
18456;DHT22;9357;49.900;8.208;2022-07-04T00:29:22;20.20;99.90
18456;DHT22;9357;49.900;8.208;2022-07-04T00:30:55;20.20;99.90
18456;DHT22;9357;49.900;8.208;2022-07-04T00:32:27;20.20;99.90
18456;DHT22;9357;49.900;8.208;2022-07-04T00:33:59;20.10;99.90
18456;DHT22;9357;49.900;8.208;2022-07-04T00:35:32;20.10;99.90
18456;DHT22;9357;49.900;8.208;2022-07-04T00:37:06;20.10;99.90
18456;DHT22;9357;49.900;8.208;2022-07-04T00:38:39;20.10;99.90
18456;DHT22;9357;49.900;8.208;2022-07-04T00:40:12;20.00;99.90
18456;DHT22;9357;49.900;8.208;2022-07-04T00:41:44;20.00;99.90
18456;DHT22;9357;49.900;8.208;2022-07-04T00:43:21;20.00;99.90
18456;DHT22;9357;49.900;8.208;2022-07-04T00:44:55;20.00;99.90
18456;DHT22;9357;49.900;8.208;2022-07-04T00:46:28;19.90;99.90
18456;DHT22;9357;49.900;8.208;2022-07-04T00:48:01;19.90;99.90
18456;DHT22;9357;49.900;8.208;2022-07-04T00:49:34;19.90;99.90
18456;DHT22;9357;49.900;8.208;2022-07-04T00:51:07;19.90;99.90
18456;DHT22;9357;49.900;8.208;2022-07-04T00:52:41;19.80;99.90
18456;DHT22;9357;49.900;8.208;2022-07-04T00:54:14;19.80;99.90
18456;DHT22;9357;49.900;8.208;2022-07-04T00:55:47;19.80;99.90
18456;DHT22;9357;49.900;8.208;2022-07-04T00:57:19;19.80;99.90
18456;DHT22;9357;49.900;8.208;2022-07-04T00:58:52;19.70;99.90
18456;DHT22;9357;49.900;8.208;2022-07-04T01:00:25;19.70;99.90
18456;DHT22;9357;49.900;8.208;2022-07-04T01:01:58;19.70;99.90
18456;DHT22;9357;49.900;8.208;2022-07-04T01:03:31;19.60;99.90
18456;DHT22;9357;49.900;8.208;2022-07-04T01:05:04;19.60;99.90
18456;DHT22;9357;49.900;8.208;2022-07-04T01:06:38;19.60;99.90
18456;DHT22;9357;49.900;8.208;2022-07-04T01:08:12;19.50;99.90
18456;DHT22;9357;49.900;8.208;2022-07-04T01:09:46;19.50;99.90
18456;DHT22;9357;49.900;8.208;2022-07-04T01:11:19;19.50;99.90
18456;DHT22;9357;49.900;8.208;2022-07-04T01:12:51;19.40;99.90
18456;DHT22;9357;49.900;8.208;2022-07-04T01:14:25;19.40;99.90
18456;DHT22;9357;49.900;8.208;2022-07-04T01:15:58;19.40;99.90
18456;DHT22;9357;49.900;8.208;2022-07-04T01:17:31;19.40;99.90
18456;DHT22;9357;49.900;8.208;2022-07-04T01:19:04;19.30;99.90
18456;DHT22;9357;49.900;8.208;2022-07-04T01:20:39;19.30;99.90
18456;DHT22;9357;49.900;8.208;2022-07-04T01:22:12;19.30;99.90
18456;DHT22;9357;49.900;8.208;2022-07-04T01:23:47;19.30;99.90
18456;DHT22;9357;49.900;8.208;2022-07-04T01:25:19;19.30;99.90
18456;DHT22;9357;49.900;8.208;2022-07-04T01:26:52;19.30;99.90
18456;DHT22;9357;49.900;8.208;2022-07-04T01:28:25;19.20;99.90
18456;DHT22;9357;49.900;8.208;2022-07-04T01:29:58;19.20;99.90
18456;DHT22;9357;49.900;8.208;2022-07-04T01:31:31;19.20;99.90
18456;DHT22;9357;49.900;8.208;2022-07-04T01:33:04;19.10;99.90
18456;DHT22;9357;49.900;8.208;2022-07-04T01:34:37;19.10;99.90
18456;DHT22;9357;49.900;8.208;2022-07-04T01:36:16;19.10;99.90
18456;DHT22;9357;49.900;8.208;2022-07-04T01:37:49;19.10;99.90
18456;DHT22;9357;49.900;8.208;2022-07-04T01:39:22;19.10;99.90
18456;DHT22;9357;49.900;8.208;2022-07-04T01:40:53;19.00;99.90
18456;DHT22;9357;49.900;8.208;2022-07-04T01:42:26;19.00;99.90
18456;DHT22;9357;49.900;8.208;2022-07-04T01:43:58;19.00;99.90
18456;DHT22;9357;49.900;8.208;2022-07-04T01:45:31;19.00;99.90
18456;DHT22;9357;49.900;8.208;2022-07-04T01:47:05;18.90;99.90
18456;DHT22;9357;49.900;8.208;2022-07-04T01:48:38;18.90;99.90
18456;DHT22;9357;49.900;8.208;2022-07-04T01:50:11;18.90;99.90
18456;DHT22;9357;49.900;8.208;2022-07-04T01:51:46;18.80;99.90
18456;DHT22;9357;49.900;8.208;2022-07-04T01:53:18;18.70;99.90
18456;DHT22;9357;49.900;8.208;2022-07-04T01:54:51;18.70;99.90
18456;DHT22;9357;49.900;8.208;2022-07-04T01:56:24;18.70;99.90
18456;DHT22;9357;49.900;8.208;2022-07-04T01:57:57;18.60;99.90
18456;DHT22;9357;49.900;8.208;2022-07-04T01:59:30;18.60;99.90
18456;DHT22;9357;49.900;8.208;2022-07-04T02:01:20;18.60;99.90
18456;DHT22;9357;49.900;8.208;2022-07-04T02:03:02;18.60;99.90
18456;DHT22;9357;49.900;8.208;2022-07-04T02:04:34;18.50;99.90
18456;DHT22;9357;49.900;8.208;2022-07-04T02:06:06;18.50;99.90
18456;DHT22;9357;49.900;8.208;2022-07-04T02:07:41;18.50;99.90
18456;DHT22;9357;49.900;8.208;2022-07-04T02:09:13;18.60;99.90
18456;DHT22;9357;49.900;8.208;2022-07-04T02:10:48;18.50;99.90
18456;DHT22;9357;49.900;8.208;2022-07-04T02:12:21;18.50;99.90
18456;DHT22;9357;49.900;8.208;2022-07-04T02:14:11;18.50;99.90
18456;DHT22;9357;49.900;8.208;2022-07-04T02:15:43;18.50;99.90
18456;DHT22;9357;49.900;8.208;2022-07-04T02:17:16;18.40;99.90
18456;DHT22;9357;49.900;8.208;2022-07-04T02:18:48;18.40;99.90
18456;DHT22;9357;49.900;8.208;2022-07-04T02:20:21;18.40;99.90
18456;DHT22;9357;49.900;8.208;2022-07-04T02:21:54;18.50;99.90
18456;DHT22;9357;49.900;8.208;2022-07-04T02:23:28;18.40;99.90
18456;DHT22;9357;49.900;8.208;2022-07-04T02:25:00;18.40;99.90
18456;DHT22;9357;49.900;8.208;2022-07-04T02:26:33;18.40;99.90
18456;DHT22;9357;49.900;8.208;2022-07-04T02:28:05;18.30;99.90
18456;DHT22;9357;49.900;8.208;2022-07-04T02:29:39;18.30;99.90
18456;DHT22;9357;49.900;8.208;2022-07-04T02:31:10;18.30;99.90
18456;DHT22;9357;49.900;8.208;2022-07-04T02:32:44;18.30;99.90
18456;DHT22;9357;49.900;8.208;2022-07-04T02:34:16;18.30;99.90
18456;DHT22;9357;49.900;8.208;2022-07-04T02:35:48;18.30;99.90
18456;DHT22;9357;49.900;8.208;2022-07-04T02:37:21;18.20;99.90
18456;DHT22;9357;49.900;8.208;2022-07-04T02:38:54;18.20;99.90
18456;DHT22;9357;49.900;8.208;2022-07-04T02:40:27;18.20;99.90
18456;DHT22;9357;49.900;8.208;2022-07-04T02:42:00;18.20;99.90
18456;DHT22;9357;49.900;8.208;2022-07-04T02:43:31;18.10;99.90
18456;DHT22;9357;49.900;8.208;2022-07-04T02:45:07;18.10;99.90
18456;DHT22;9357;49.900;8.208;2022-07-04T02:46:40;18.00;99.90
18456;DHT22;9357;49.900;8.208;2022-07-04T02:48:12;18.00;99.90
18456;DHT22;9357;49.900;8.208;2022-07-04T02:49:44;18.00;99.90
18456;DHT22;9357;49.900;8.208;2022-07-04T02:51:17;18.00;99.90
18456;DHT22;9357;49.900;8.208;2022-07-04T02:52:50;18.00;99.90
18456;DHT22;9357;49.900;8.208;2022-07-04T02:54:24;17.90;99.90
18456;DHT22;9357;49.900;8.208;2022-07-04T02:55:57;17.90;99.90
18456;DHT22;9357;49.900;8.208;2022-07-04T02:57:30;17.90;99.90
18456;DHT22;9357;49.900;8.208;2022-07-04T02:59:03;17.80;99.90
18456;DHT22;9357;49.900;8.208;2022-07-04T03:00:35;17.80;99.90
18456;DHT22;9357;49.900;8.208;2022-07-04T03:02:08;17.90;99.90
18456;DHT22;9357;49.900;8.208;2022-07-04T03:03:40;17.70;99.90
18456;DHT22;9357;49.900;8.208;2022-07-04T03:05:13;17.70;99.90
18456;DHT22;9357;49.900;8.208;2022-07-04T03:06:46;17.70;99.90
18456;DHT22;9357;49.900;8.208;2022-07-04T03:08:19;17.60;99.90
18456;DHT22;9357;49.900;8.208;2022-07-04T03:09:52;17.60;99.90
18456;DHT22;9357;49.900;8.208;2022-07-04T03:11:25;17.50;99.90
18456;DHT22;9357;49.900;8.208;2022-07-04T03:12:58;17.50;99.90
18456;DHT22;9357;49.900;8.208;2022-07-04T03:14:37;17.40;99.90
18456;DHT22;9357;49.900;8.208;2022-07-04T03:16:10;17.40;99.90
18456;DHT22;9357;49.900;8.208;2022-07-04T03:17:42;17.40;99.90
18456;DHT22;9357;49.900;8.208;2022-07-04T03:19:15;17.40;99.90
18456;DHT22;9357;49.900;8.208;2022-07-04T03:20:48;17.40;99.90
18456;DHT22;9357;49.900;8.208;2022-07-04T03:22:21;17.30;99.90
18456;DHT22;9357;49.900;8.208;2022-07-04T03:23:54;17.30;99.90
18456;DHT22;9357;49.900;8.208;2022-07-04T03:25:31;17.30;99.90
18456;DHT22;9357;49.900;8.208;2022-07-04T03:27:04;17.20;99.90
18456;DHT22;9357;49.900;8.208;2022-07-04T03:28:37;17.20;99.90
18456;DHT22;9357;49.900;8.208;2022-07-04T03:30:11;17.20;99.90
18456;DHT22;9357;49.900;8.208;2022-07-04T03:31:43;17.20;99.90
18456;DHT22;9357;49.900;8.208;2022-07-04T03:33:16;17.20;99.90
18456;DHT22;9357;49.900;8.208;2022-07-04T03:34:49;17.20;99.90
18456;DHT22;9357;49.900;8.208;2022-07-04T03:36:22;17.20;99.90
18456;DHT22;9357;49.900;8.208;2022-07-04T03:37:55;17.20;99.90
18456;DHT22;9357;49.900;8.208;2022-07-04T03:39:28;17.20;99.90
18456;DHT22;9357;49.900;8.208;2022-07-04T03:41:02;17.20;99.90
18456;DHT22;9357;49.900;8.208;2022-07-04T03:42:34;17.20;99.90
18456;DHT22;9357;49.900;8.208;2022-07-04T03:44:07;17.20;99.90
18456;DHT22;9357;49.900;8.208;2022-07-04T03:45:40;17.20;99.90
18456;DHT22;9357;49.900;8.208;2022-07-04T03:47:13;17.20;99.90
18456;DHT22;9357;49.900;8.208;2022-07-04T03:48:46;17.10;99.90
18456;DHT22;9357;49.900;8.208;2022-07-04T03:50:18;17.20;99.90
18456;DHT22;9357;49.900;8.208;2022-07-04T03:51:50;17.20;99.90
18456;DHT22;9357;49.900;8.208;2022-07-04T03:53:23;17.20;99.90
18456;DHT22;9357;49.900;8.208;2022-07-04T03:54:56;17.10;99.90
18456;DHT22;9357;49.900;8.208;2022-07-04T03:56:30;17.10;99.90
18456;DHT22;9357;49.900;8.208;2022-07-04T03:58:03;17.10;99.90
18456;DHT22;9357;49.900;8.208;2022-07-04T03:59:36;17.10;99.90
18456;DHT22;9357;49.900;8.208;2022-07-04T04:01:09;17.10;99.90
18456;DHT22;9357;49.900;8.208;2022-07-04T04:02:42;17.10;99.90
18456;DHT22;9357;49.900;8.208;2022-07-04T04:04:18;17.10;99.90
18456;DHT22;9357;49.900;8.208;2022-07-04T04:06:09;17.10;99.90
18456;DHT22;9357;49.900;8.208;2022-07-04T04:07:40;17.00;99.90
18456;DHT22;9357;49.900;8.208;2022-07-04T04:09:15;17.00;99.90
18456;DHT22;9357;49.900;8.208;2022-07-04T04:10:50;17.00;99.90
18456;DHT22;9357;49.900;8.208;2022-07-04T04:12:23;17.10;99.90
18456;DHT22;9357;49.900;8.208;2022-07-04T04:13:56;17.00;99.90
18456;DHT22;9357;49.900;8.208;2022-07-04T04:15:29;17.00;99.90
18456;DHT22;9357;49.900;8.208;2022-07-04T04:17:02;17.10;99.90
18456;DHT22;9357;49.900;8.208;2022-07-04T04:18:36;17.00;99.90
18456;DHT22;9357;49.900;8.208;2022-07-04T04:20:09;17.10;99.90
18456;DHT22;9357;49.900;8.208;2022-07-04T04:21:42;17.10;99.90
18456;DHT22;9357;49.900;8.208;2022-07-04T04:23:14;17.00;99.90
18456;DHT22;9357;49.900;8.208;2022-07-04T04:24:47;17.00;99.90
18456;DHT22;9357;49.900;8.208;2022-07-04T04:26:20;17.00;99.90
18456;DHT22;9357;49.900;8.208;2022-07-04T04:27:54;17.00;99.90
18456;DHT22;9357;49.900;8.208;2022-07-04T04:29:27;17.00;99.90
18456;DHT22;9357;49.900;8.208;2022-07-04T04:31:00;17.00;99.90
18456;DHT22;9357;49.900;8.208;2022-07-04T04:32:33;17.00;99.90
18456;DHT22;9357;49.900;8.208;2022-07-04T04:34:06;17.00;99.90
18456;DHT22;9357;49.900;8.208;2022-07-04T04:35:39;17.00;99.90
18456;DHT22;9357;49.900;8.208;2022-07-04T04:37:11;16.90;99.90
18456;DHT22;9357;49.900;8.208;2022-07-04T04:38:44;16.90;99.90
18456;DHT22;9357;49.900;8.208;2022-07-04T04:40:17;16.90;99.90
18456;DHT22;9357;49.900;8.208;2022-07-04T04:41:50;16.90;99.90
18456;DHT22;9357;49.900;8.208;2022-07-04T04:43:24;16.90;99.90
18456;DHT22;9357;49.900;8.208;2022-07-04T04:44:57;16.90;99.90
18456;DHT22;9357;49.900;8.208;2022-07-04T04:46:30;16.90;99.90
18456;DHT22;9357;49.900;8.208;2022-07-04T04:48:03;17.00;99.90
18456;DHT22;9357;49.900;8.208;2022-07-04T04:49:35;17.00;99.90
18456;DHT22;9357;49.900;8.208;2022-07-04T04:51:07;17.00;99.90
18456;DHT22;9357;49.900;8.208;2022-07-04T04:52:41;17.00;99.90
18456;DHT22;9357;49.900;8.208;2022-07-04T04:54:14;17.00;99.90
18456;DHT22;9357;49.900;8.208;2022-07-04T04:55:46;17.00;99.90
18456;DHT22;9357;49.900;8.208;2022-07-04T04:57:19;17.00;99.90
18456;DHT22;9357;49.900;8.208;2022-07-04T04:58:53;17.00;99.90
18456;DHT22;9357;49.900;8.208;2022-07-04T05:00:26;17.00;99.90
18456;DHT22;9357;49.900;8.208;2022-07-04T05:01:59;17.10;99.90
18456;DHT22;9357;49.900;8.208;2022-07-04T05:03:31;17.10;99.90
18456;DHT22;9357;49.900;8.208;2022-07-04T05:05:04;17.10;99.90
18456;DHT22;9357;49.900;8.208;2022-07-04T05:06:37;17.10;99.90
18456;DHT22;9357;49.900;8.208;2022-07-04T05:08:10;17.10;99.90
18456;DHT22;9357;49.900;8.208;2022-07-04T05:09:43;17.10;99.90
18456;DHT22;9357;49.900;8.208;2022-07-04T05:11:16;17.20;99.90
18456;DHT22;9357;49.900;8.208;2022-07-04T05:12:49;17.20;99.90
18456;DHT22;9357;49.900;8.208;2022-07-04T05:14:23;17.20;99.90
18456;DHT22;9357;49.900;8.208;2022-07-04T05:15:56;17.30;99.90
18456;DHT22;9357;49.900;8.208;2022-07-04T05:17:28;17.30;99.90
18456;DHT22;9357;49.900;8.208;2022-07-04T05:19:01;17.30;99.90
18456;DHT22;9357;49.900;8.208;2022-07-04T05:20:34;17.40;99.90
18456;DHT22;9357;49.900;8.208;2022-07-04T05:22:07;17.40;99.90
18456;DHT22;9357;49.900;8.208;2022-07-04T05:23:42;17.40;99.90
18456;DHT22;9357;49.900;8.208;2022-07-04T05:25:14;17.40;99.90
18456;DHT22;9357;49.900;8.208;2022-07-04T05:26:47;17.50;99.90
18456;DHT22;9357;49.900;8.208;2022-07-04T05:28:20;17.50;99.90
18456;DHT22;9357;49.900;8.208;2022-07-04T05:29:54;17.60;99.90
18456;DHT22;9357;49.900;8.208;2022-07-04T05:31:27;17.60;99.90
18456;DHT22;9357;49.900;8.208;2022-07-04T05:33:00;17.70;99.90
18456;DHT22;9357;49.900;8.208;2022-07-04T05:34:33;17.70;99.90
18456;DHT22;9357;49.900;8.208;2022-07-04T05:36:06;17.80;99.90
18456;DHT22;9357;49.900;8.208;2022-07-04T05:37:39;17.90;99.90
18456;DHT22;9357;49.900;8.208;2022-07-04T05:39:12;18.00;99.90
18456;DHT22;9357;49.900;8.208;2022-07-04T05:40:45;18.10;99.90
18456;DHT22;9357;49.900;8.208;2022-07-04T05:42:17;18.20;99.90
18456;DHT22;9357;49.900;8.208;2022-07-04T05:43:50;18.20;99.90
18456;DHT22;9357;49.900;8.208;2022-07-04T05:45:30;18.30;99.90
18456;DHT22;9357;49.900;8.208;2022-07-04T05:47:03;18.40;99.90
18456;DHT22;9357;49.900;8.208;2022-07-04T05:48:36;18.40;99.90
18456;DHT22;9357;49.900;8.208;2022-07-04T05:50:09;18.40;99.90
18456;DHT22;9357;49.900;8.208;2022-07-04T05:51:42;18.50;99.90
18456;DHT22;9357;49.900;8.208;2022-07-04T05:53:15;18.60;99.90
18456;DHT22;9357;49.900;8.208;2022-07-04T05:54:48;18.60;99.90
18456;DHT22;9357;49.900;8.208;2022-07-04T05:56:21;18.70;99.90
18456;DHT22;9357;49.900;8.208;2022-07-04T05:57:54;18.70;99.90
18456;DHT22;9357;49.900;8.208;2022-07-04T05:59:26;18.70;99.90
18456;DHT22;9357;49.900;8.208;2022-07-04T06:01:02;18.80;99.90
18456;DHT22;9357;49.900;8.208;2022-07-04T06:02:34;18.90;99.90
18456;DHT22;9357;49.900;8.208;2022-07-04T06:04:07;19.00;99.90
18456;DHT22;9357;49.900;8.208;2022-07-04T06:05:40;19.00;99.90
18456;DHT22;9357;49.900;8.208;2022-07-04T06:07:13;19.00;99.90
18456;DHT22;9357;49.900;8.208;2022-07-04T06:08:46;19.10;99.90
18456;DHT22;9357;49.900;8.208;2022-07-04T06:10:19;19.20;99.90
18456;DHT22;9357;49.900;8.208;2022-07-04T06:11:52;19.30;99.90
18456;DHT22;9357;49.900;8.208;2022-07-04T06:13:25;19.20;99.90
18456;DHT22;9357;49.900;8.208;2022-07-04T06:14:59;19.30;99.90
18456;DHT22;9357;49.900;8.208;2022-07-04T06:16:32;19.40;99.90
18456;DHT22;9357;49.900;8.208;2022-07-04T06:18:05;19.50;99.90
18456;DHT22;9357;49.900;8.208;2022-07-04T06:19:38;19.60;99.90
18456;DHT22;9357;49.900;8.208;2022-07-04T06:21:11;19.60;99.90
18456;DHT22;9357;49.900;8.208;2022-07-04T06:22:45;19.80;99.90
18456;DHT22;9357;49.900;8.208;2022-07-04T06:24:18;19.90;99.90
18456;DHT22;9357;49.900;8.208;2022-07-04T06:25:51;20.00;99.90
18456;DHT22;9357;49.900;8.208;2022-07-04T06:27:24;20.10;99.90
18456;DHT22;9357;49.900;8.208;2022-07-04T06:28:57;20.20;99.90
18456;DHT22;9357;49.900;8.208;2022-07-04T06:30:29;20.40;99.90
18456;DHT22;9357;49.900;8.208;2022-07-04T06:32:04;20.40;99.90
18456;DHT22;9357;49.900;8.208;2022-07-04T06:33:37;20.60;99.90
18456;DHT22;9357;49.900;8.208;2022-07-04T06:35:26;20.70;99.90
18456;DHT22;9357;49.900;8.208;2022-07-04T06:37:16;21.00;99.90
18456;DHT22;9357;49.900;8.208;2022-07-04T06:38:49;21.10;99.90
18456;DHT22;9357;49.900;8.208;2022-07-04T06:40:22;21.30;99.90
18456;DHT22;9357;49.900;8.208;2022-07-04T06:41:55;21.40;99.90
18456;DHT22;9357;49.900;8.208;2022-07-04T06:43:28;21.70;99.90
18456;DHT22;9357;49.900;8.208;2022-07-04T06:45:01;21.90;99.90
18456;DHT22;9357;49.900;8.208;2022-07-04T06:46:34;22.10;99.90
18456;DHT22;9357;49.900;8.208;2022-07-04T06:48:08;22.30;99.90
18456;DHT22;9357;49.900;8.208;2022-07-04T06:49:47;22.50;99.90
18456;DHT22;9357;49.900;8.208;2022-07-04T06:51:21;22.80;99.90
18456;DHT22;9357;49.900;8.208;2022-07-04T06:52:54;23.10;99.90
18456;DHT22;9357;49.900;8.208;2022-07-04T06:54:27;23.30;99.90
18456;DHT22;9357;49.900;8.208;2022-07-04T06:56:00;23.50;99.90
18456;DHT22;9357;49.900;8.208;2022-07-04T06:57:32;23.80;99.90
18456;DHT22;9357;49.900;8.208;2022-07-04T06:59:05;24.00;99.90
18456;DHT22;9357;49.900;8.208;2022-07-04T07:00:38;24.20;99.90
18456;DHT22;9357;49.900;8.208;2022-07-04T07:02:13;24.40;99.90
18456;DHT22;9357;49.900;8.208;2022-07-04T07:03:47;24.60;99.90
18456;DHT22;9357;49.900;8.208;2022-07-04T07:05:20;24.80;99.90
18456;DHT22;9357;49.900;8.208;2022-07-04T07:07:12;25.00;99.90
18456;DHT22;9357;49.900;8.208;2022-07-04T07:08:45;25.30;99.90
18456;DHT22;9357;49.900;8.208;2022-07-04T07:10:18;25.50;99.90
18456;DHT22;9357;49.900;8.208;2022-07-04T07:11:51;25.70;99.90
18456;DHT22;9357;49.900;8.208;2022-07-04T07:13:24;25.90;99.90
18456;DHT22;9357;49.900;8.208;2022-07-04T07:14:56;26.10;99.90
18456;DHT22;9357;49.900;8.208;2022-07-04T07:16:29;26.20;99.90
18456;DHT22;9357;49.900;8.208;2022-07-04T07:18:02;26.40;99.90
18456;DHT22;9357;49.900;8.208;2022-07-04T07:19:36;26.60;99.90
18456;DHT22;9357;49.900;8.208;2022-07-04T07:21:09;26.90;99.90
18456;DHT22;9357;49.900;8.208;2022-07-04T07:22:42;27.00;99.90
18456;DHT22;9357;49.900;8.208;2022-07-04T07:24:14;27.10;99.90
18456;DHT22;9357;49.900;8.208;2022-07-04T07:25:47;27.20;99.90
18456;DHT22;9357;49.900;8.208;2022-07-04T07:27:20;27.20;99.90
18456;DHT22;9357;49.900;8.208;2022-07-04T07:28:53;27.10;99.90
18456;DHT22;9357;49.900;8.208;2022-07-04T07:30:26;27.00;99.90
18456;DHT22;9357;49.900;8.208;2022-07-04T07:31:59;26.90;99.90
18456;DHT22;9357;49.900;8.208;2022-07-04T07:33:32;26.90;99.90
18456;DHT22;9357;49.900;8.208;2022-07-04T07:35:07;27.00;99.90
18456;DHT22;9357;49.900;8.208;2022-07-04T07:36:40;27.20;99.90
18456;DHT22;9357;49.900;8.208;2022-07-04T07:38:13;27.30;99.90
18456;DHT22;9357;49.900;8.208;2022-07-04T07:39:45;27.40;99.90
18456;DHT22;9357;49.900;8.208;2022-07-04T07:41:19;27.60;99.90
18456;DHT22;9357;49.900;8.208;2022-07-04T07:42:52;27.70;99.00
18456;DHT22;9357;49.900;8.208;2022-07-04T07:44:26;27.60;99.90
18456;DHT22;9357;49.900;8.208;2022-07-04T07:45:59;27.60;99.90
18456;DHT22;9357;49.900;8.208;2022-07-04T07:47:32;27.70;99.90
18456;DHT22;9357;49.900;8.208;2022-07-04T07:49:05;27.70;99.90
18456;DHT22;9357;49.900;8.208;2022-07-04T07:50:39;27.90;99.90
18456;DHT22;9357;49.900;8.208;2022-07-04T07:52:12;28.10;99.70
18456;DHT22;9357;49.900;8.208;2022-07-04T07:53:45;28.20;99.30
18456;DHT22;9357;49.900;8.208;2022-07-04T07:55:37;28.20;99.40
18456;DHT22;9357;49.900;8.208;2022-07-04T07:57:10;28.20;99.20
18456;DHT22;9357;49.900;8.208;2022-07-04T07:58:43;28.40;99.60
18456;DHT22;9357;49.900;8.208;2022-07-04T08:00:16;28.60;99.20
18456;DHT22;9357;49.900;8.208;2022-07-04T08:02:09;28.70;98.60
18456;DHT22;9357;49.900;8.208;2022-07-04T08:03:42;28.70;96.50
18456;DHT22;9357;49.900;8.208;2022-07-04T08:05:32;28.50;96.40
18456;DHT22;9357;49.900;8.208;2022-07-04T08:07:07;28.10;97.00
18456;DHT22;9357;49.900;8.208;2022-07-04T08:08:55;27.90;98.30
18456;DHT22;9357;49.900;8.208;2022-07-04T08:10:28;28.10;98.50
18456;DHT22;9357;49.900;8.208;2022-07-04T08:12:02;28.40;98.40
18456;DHT22;9357;49.900;8.208;2022-07-04T08:13:36;28.50;97.90
18456;DHT22;9357;49.900;8.208;2022-07-04T08:15:09;28.70;97.20
18456;DHT22;9357;49.900;8.208;2022-07-04T08:16:42;28.70;96.60
18456;DHT22;9357;49.900;8.208;2022-07-04T08:18:27;28.80;97.50
18456;DHT22;9357;49.900;8.208;2022-07-04T08:20:00;29.00;97.30
18456;DHT22;9357;49.900;8.208;2022-07-04T08:21:32;29.20;97.30
18456;DHT22;9357;49.900;8.208;2022-07-04T08:23:27;29.20;95.40
18456;DHT22;9357;49.900;8.208;2022-07-04T08:25:00;29.00;97.10
18456;DHT22;9357;49.900;8.208;2022-07-04T08:26:33;29.10;96.90
18456;DHT22;9357;49.900;8.208;2022-07-04T08:28:06;29.30;95.40
18456;DHT22;9357;49.900;8.208;2022-07-04T08:29:39;29.20;95.90
18456;DHT22;9357;49.900;8.208;2022-07-04T08:31:13;29.30;96.30
18456;DHT22;9357;49.900;8.208;2022-07-04T08:33:05;29.60;94.70
18456;DHT22;9357;49.900;8.208;2022-07-04T08:34:38;29.60;94.50
18456;DHT22;9357;49.900;8.208;2022-07-04T08:36:11;29.50;94.00
18456;DHT22;9357;49.900;8.208;2022-07-04T08:37:44;29.30;94.10
18456;DHT22;9357;49.900;8.208;2022-07-04T08:39:18;29.10;95.70
18456;DHT22;9357;49.900;8.208;2022-07-04T08:40:56;29.30;95.90
18456;DHT22;9357;49.900;8.208;2022-07-04T08:42:30;29.30;95.10
18456;DHT22;9357;49.900;8.208;2022-07-04T08:44:08;29.50;95.90
18456;DHT22;9357;49.900;8.208;2022-07-04T08:45:46;29.70;95.20
18456;DHT22;9357;49.900;8.208;2022-07-04T08:47:42;30.10;94.90
18456;DHT22;9357;49.900;8.208;2022-07-04T08:49:20;30.20;95.30
18456;DHT22;9357;49.900;8.208;2022-07-04T08:50:55;30.30;93.90
18456;DHT22;9357;49.900;8.208;2022-07-04T08:52:34;30.30;94.90
18456;DHT22;9357;49.900;8.208;2022-07-04T08:54:08;30.50;94.10
18456;DHT22;9357;49.900;8.208;2022-07-04T08:55:57;30.60;94.00
18456;DHT22;9357;49.900;8.208;2022-07-04T08:57:49;30.90;94.10
18456;DHT22;9357;49.900;8.208;2022-07-04T08:59:40;31.10;93.40
18456;DHT22;9357;49.900;8.208;2022-07-04T09:01:17;31.10;91.70
18456;DHT22;9357;49.900;8.208;2022-07-04T09:02:51;30.80;91.60
18456;DHT22;9357;49.900;8.208;2022-07-04T09:04:24;30.30;91.60
18456;DHT22;9357;49.900;8.208;2022-07-04T09:05:58;30.00;92.90
18456;DHT22;9357;49.900;8.208;2022-07-04T09:07:32;29.90;92.60
18456;DHT22;9357;49.900;8.208;2022-07-04T09:09:06;29.80;92.50
18456;DHT22;9357;49.900;8.208;2022-07-04T09:10:40;29.90;92.30
18456;DHT22;9357;49.900;8.208;2022-07-04T09:12:15;29.70;92.60
18456;DHT22;9357;49.900;8.208;2022-07-04T09:13:47;29.60;91.70
18456;DHT22;9357;49.900;8.208;2022-07-04T09:15:20;29.50;92.40
18456;DHT22;9357;49.900;8.208;2022-07-04T09:16:53;29.50;92.90
18456;DHT22;9357;49.900;8.208;2022-07-04T09:18:30;29.70;92.70
18456;DHT22;9357;49.900;8.208;2022-07-04T09:20:14;29.70;90.90
18456;DHT22;9357;49.900;8.208;2022-07-04T09:21:48;29.40;91.50
18456;DHT22;9357;49.900;8.208;2022-07-04T09:23:22;29.30;92.50
18456;DHT22;9357;49.900;8.208;2022-07-04T09:24:55;29.50;92.30
18456;DHT22;9357;49.900;8.208;2022-07-04T09:26:33;29.70;92.20
18456;DHT22;9357;49.900;8.208;2022-07-04T09:28:07;29.90;92.30
18456;DHT22;9357;49.900;8.208;2022-07-04T09:29:51;30.10;91.60
18456;DHT22;9357;49.900;8.208;2022-07-04T09:31:27;30.10;90.80
18456;DHT22;9357;49.900;8.208;2022-07-04T09:33:00;30.20;91.30
18456;DHT22;9357;49.900;8.208;2022-07-04T09:34:34;30.30;91.40
18456;DHT22;9357;49.900;8.208;2022-07-04T09:36:11;30.40;91.60
18456;DHT22;9357;49.900;8.208;2022-07-04T09:37:45;30.60;90.80
18456;DHT22;9357;49.900;8.208;2022-07-04T09:39:19;30.70;91.00
18456;DHT22;9357;49.900;8.208;2022-07-04T09:40:53;30.80;88.80
18456;DHT22;9357;49.900;8.208;2022-07-04T09:42:43;30.60;88.10
18456;DHT22;9357;49.900;8.208;2022-07-04T09:44:17;30.20;89.40
18456;DHT22;9357;49.900;8.208;2022-07-04T09:45:54;30.10;87.40
18456;DHT22;9357;49.900;8.208;2022-07-04T09:47:28;29.80;90.00
18456;DHT22;9357;49.900;8.208;2022-07-04T09:49:01;29.70;91.20
18456;DHT22;9357;49.900;8.208;2022-07-04T09:50:34;29.80;91.30
18456;DHT22;9357;49.900;8.208;2022-07-04T09:52:07;30.20;91.10
18456;DHT22;9357;49.900;8.208;2022-07-04T09:53:40;30.50;91.20
18456;DHT22;9357;49.900;8.208;2022-07-04T09:55:13;30.80;90.90
18456;DHT22;9357;49.900;8.208;2022-07-04T09:56:53;31.00;89.90
18456;DHT22;9357;49.900;8.208;2022-07-04T09:58:26;31.10;88.60
18456;DHT22;9357;49.900;8.208;2022-07-04T10:00:16;30.90;87.80
18456;DHT22;9357;49.900;8.208;2022-07-04T10:01:49;30.80;84.90
18456;DHT22;9357;49.900;8.208;2022-07-04T10:03:24;30.70;86.50
18456;DHT22;9357;49.900;8.208;2022-07-04T10:04:58;30.60;86.50